Nova Prata, Brazil
Current Conditions -  °F | °C
As of 8:00 PM on Wednesday 22 Oct 2014 (Local Time) from SBPF Reporting Station
Clear Clear  
Wind Chill: 73°   Ceiling: Unl
Heat Index: 73°   Visibility: 6mi
Dew Point: 57°   Wind: 12mph
Humidity: 57%   Direction: 50°NE
Pressure: 30.12"   Gusts: NA
Location:  28.78°S, 51.61°W
Report Text: SBPF 222200Z 05010KT CAVOK 23/14 Q1020
Loading
Personal Weather Stations






























Interactive Weather Map
Tropical Storm Tracking
New forecast layout! Learn more

10-Day Weather Forecast

Advertisements
Track Severe Weather on mobile